sensor_id;sensor_type;location;lat;lon;timestamp;P1;durP1;ratioP1;P2;durP2;ratioP2
55076;SDS011;40971;44.702;11.030;2022-09-03T00:00:16;7.50;;;2.17;;
55076;SDS011;40971;44.702;11.030;2022-09-03T00:08:01;9.10;;;2.38;;
55076;SDS011;40971;44.702;11.030;2022-09-03T00:13:08;5.50;;;1.90;;
55076;SDS011;40971;44.702;11.030;2022-09-03T00:15:41;8.13;;;2.20;;
55076;SDS011;40971;44.702;11.030;2022-09-03T00:18:17;6.75;;;2.40;;
55076;SDS011;40971;44.702;11.030;2022-09-03T00:20:48;5.35;;;2.13;;
55076;SDS011;40971;44.702;11.030;2022-09-03T00:23:26;7.32;;;2.40;;
55076;SDS011;40971;44.702;11.030;2022-09-03T00:28:25;7.78;;;2.55;;
55076;SDS011;40971;44.702;11.030;2022-09-03T00:31:05;6.25;;;2.80;;
55076;SDS011;40971;44.702;11.030;2022-09-03T00:33:47;6.15;;;3.00;;
55076;SDS011;40971;44.702;11.030;2022-09-03T00:36:31;8.57;;;3.20;;
55076;SDS011;40971;44.702;11.030;2022-09-03T00:39:06;5.93;;;3.00;;
55076;SDS011;40971;44.702;11.030;2022-09-03T00:41:37;9.45;;;2.65;;
55076;SDS011;40971;44.702;11.030;2022-09-03T00:47:01;7.65;;;3.22;;
55076;SDS011;40971;44.702;11.030;2022-09-03T01:00:45;6.75;;;3.00;;
55076;SDS011;40971;44.702;11.030;2022-09-03T01:03:13;10.27;;;3.53;;
55076;SDS011;40971;44.702;11.030;2022-09-03T01:06:12;8.25;;;3.25;;
55076;SDS011;40971;44.702;11.030;2022-09-03T01:09:06;8.48;;;3.00;;
55076;SDS011;40971;44.702;11.030;2022-09-03T01:11:56;12.57;;;3.17;;
55076;SDS011;40971;44.702;11.030;2022-09-03T01:25:34;10.27;;;3.45;;
55076;SDS011;40971;44.702;11.030;2022-09-03T01:30:32;7.15;;;3.00;;
55076;SDS011;40971;44.702;11.030;2022-09-03T01:33:07;9.20;;;3.30;;
55076;SDS011;40971;44.702;11.030;2022-09-03T01:38:54;7.60;;;3.22;;
55076;SDS011;40971;44.702;11.030;2022-09-03T01:43:48;10.27;;;3.70;;
55076;SDS011;40971;44.702;11.030;2022-09-03T01:46:41;12.73;;;3.65;;
55076;SDS011;40971;44.702;11.030;2022-09-03T01:52:12;7.47;;;3.83;;
55076;SDS011;40971;44.702;11.030;2022-09-03T01:57:53;7.45;;;4.10;;
55076;SDS011;40971;44.702;11.030;2022-09-03T02:00:41;12.55;;;4.53;;
55076;SDS011;40971;44.702;11.030;2022-09-03T02:03:10;7.28;;;3.50;;
55076;SDS011;40971;44.702;11.030;2022-09-03T02:05:37;7.50;;;3.70;;
55076;SDS011;40971;44.702;11.030;2022-09-03T02:08:06;9.05;;;4.30;;
55076;SDS011;40971;44.702;11.030;2022-09-03T02:10:44;8.93;;;3.70;;
55076;SDS011;40971;44.702;11.030;2022-09-03T02:13:23;8.07;;;3.55;;
55076;SDS011;40971;44.702;11.030;2022-09-03T02:15:53;7.47;;;3.50;;
55076;SDS011;40971;44.702;11.030;2022-09-03T02:18:23;8.02;;;3.42;;
55076;SDS011;40971;44.702;11.030;2022-09-03T02:21:00;12.23;;;4.25;;
55076;SDS011;40971;44.702;11.030;2022-09-03T02:23:26;8.00;;;3.30;;
55076;SDS011;40971;44.702;11.030;2022-09-03T02:25:58;7.35;;;3.45;;
55076;SDS011;40971;44.702;11.030;2022-09-03T02:28:29;8.80;;;3.75;;
55076;SDS011;40971;44.702;11.030;2022-09-03T02:30:56;9.82;;;3.75;;
55076;SDS011;40971;44.702;11.030;2022-09-03T02:33:22;9.23;;;3.28;;
55076;SDS011;40971;44.702;11.030;2022-09-03T02:35:48;10.10;;;3.50;;
55076;SDS011;40971;44.702;11.030;2022-09-03T02:38:15;8.65;;;3.80;;
55076;SDS011;40971;44.702;11.030;2022-09-03T02:40:43;12.20;;;3.92;;
55076;SDS011;40971;44.702;11.030;2022-09-03T02:46:07;13.07;;;4.68;;
55076;SDS011;40971;44.702;11.030;2022-09-03T02:48:36;8.77;;;4.30;;
55076;SDS011;40971;44.702;11.030;2022-09-03T02:51:02;8.05;;;4.60;;
55076;SDS011;40971;44.702;11.030;2022-09-03T02:53:28;9.77;;;4.50;;
55076;SDS011;40971;44.702;11.030;2022-09-03T02:55:57;12.35;;;4.38;;
55076;SDS011;40971;44.702;11.030;2022-09-03T02:58:24;12.10;;;4.57;;
55076;SDS011;40971;44.702;11.030;2022-09-03T03:00:50;11.52;;;4.38;;
55076;SDS011;40971;44.702;11.030;2022-09-03T03:03:16;8.45;;;4.30;;
55076;SDS011;40971;44.702;11.030;2022-09-03T03:05:52;7.82;;;4.22;;
55076;SDS011;40971;44.702;11.030;2022-09-03T03:08:19;7.63;;;4.28;;
55076;SDS011;40971;44.702;11.030;2022-09-03T03:10:47;7.55;;;4.47;;
55076;SDS011;40971;44.702;11.030;2022-09-03T03:13:13;8.23;;;4.55;;
55076;SDS011;40971;44.702;11.030;2022-09-03T03:15:39;8.35;;;4.53;;
55076;SDS011;40971;44.702;11.030;2022-09-03T03:18:05;7.38;;;3.85;;
55076;SDS011;40971;44.702;11.030;2022-09-03T03:20:31;8.93;;;3.88;;
55076;SDS011;40971;44.702;11.030;2022-09-03T03:23:00;10.27;;;4.53;;
55076;SDS011;40971;44.702;11.030;2022-09-03T03:25:26;12.32;;;5.18;;
55076;SDS011;40971;44.702;11.030;2022-09-03T03:27:53;11.02;;;5.20;;
55076;SDS011;40971;44.702;11.030;2022-09-03T03:30:21;12.13;;;6.05;;
55076;SDS011;40971;44.702;11.030;2022-09-03T03:32:47;13.00;;;7.00;;
55076;SDS011;40971;44.702;11.030;2022-09-03T03:35:13;13.32;;;7.28;;
55076;SDS011;40971;44.702;11.030;2022-09-03T03:37:39;13.77;;;6.85;;
55076;SDS011;40971;44.702;11.030;2022-09-03T03:40:04;14.32;;;6.32;;
55076;SDS011;40971;44.702;11.030;2022-09-03T03:42:34;12.60;;;6.40;;
55076;SDS011;40971;44.702;11.030;2022-09-03T03:45:00;11.32;;;6.97;;
55076;SDS011;40971;44.702;11.030;2022-09-03T03:47:27;12.18;;;6.68;;
55076;SDS011;40971;44.702;11.030;2022-09-03T03:49:55;13.50;;;7.45;;
55076;SDS011;40971;44.702;11.030;2022-09-03T03:52:22;11.30;;;7.38;;
55076;SDS011;40971;44.702;11.030;2022-09-03T03:54:47;12.55;;;7.63;;
55076;SDS011;40971;44.702;11.030;2022-09-03T03:57:14;13.88;;;8.05;;
55076;SDS011;40971;44.702;11.030;2022-09-03T03:59:40;12.18;;;7.93;;
55076;SDS011;40971;44.702;11.030;2022-09-03T04:02:05;11.35;;;7.28;;
55076;SDS011;40971;44.702;11.030;2022-09-03T04:04:31;12.77;;;7.50;;
55076;SDS011;40971;44.702;11.030;2022-09-03T04:06:56;11.30;;;7.55;;
55076;SDS011;40971;44.702;11.030;2022-09-03T04:09:22;11.13;;;7.78;;
55076;SDS011;40971;44.702;11.030;2022-09-03T04:11:47;11.65;;;7.13;;
55076;SDS011;40971;44.702;11.030;2022-09-03T04:14:14;14.77;;;6.72;;
55076;SDS011;40971;44.702;11.030;2022-09-03T04:16:39;11.43;;;6.95;;
55076;SDS011;40971;44.702;11.030;2022-09-03T04:19:05;12.65;;;6.90;;
55076;SDS011;40971;44.702;11.030;2022-09-03T04:21:30;21.05;;;9.27;;
55076;SDS011;40971;44.702;11.030;2022-09-03T04:23:56;10.93;;;6.68;;
55076;SDS011;40971;44.702;11.030;2022-09-03T04:26:32;14.10;;;7.53;;
55076;SDS011;40971;44.702;11.030;2022-09-03T04:28:58;12.20;;;7.38;;
55076;SDS011;40971;44.702;11.030;2022-09-03T04:31:27;11.07;;;7.13;;
55076;SDS011;40971;44.702;11.030;2022-09-03T04:33:53;13.15;;;7.35;;
55076;SDS011;40971;44.702;11.030;2022-09-03T04:36:23;14.57;;;7.78;;
55076;SDS011;40971;44.702;11.030;2022-09-03T04:38:50;14.43;;;8.35;;
55076;SDS011;40971;44.702;11.030;2022-09-03T04:41:21;12.52;;;7.93;;
55076;SDS011;40971;44.702;11.030;2022-09-03T04:43:52;13.40;;;8.00;;
55076;SDS011;40971;44.702;11.030;2022-09-03T04:46:19;13.90;;;7.90;;
55076;SDS011;40971;44.702;11.030;2022-09-03T04:48:46;15.00;;;8.70;;
55076;SDS011;40971;44.702;11.030;2022-09-03T04:51:15;15.27;;;8.95;;
55076;SDS011;40971;44.702;11.030;2022-09-03T04:53:46;16.85;;;8.82;;
55076;SDS011;40971;44.702;11.030;2022-09-03T04:56:18;15.98;;;8.52;;
55076;SDS011;40971;44.702;11.030;2022-09-03T04:58:46;12.32;;;7.88;;
55076;SDS011;40971;44.702;11.030;2022-09-03T05:01:17;20.00;;;8.05;;
55076;SDS011;40971;44.702;11.030;2022-09-03T05:03:44;15.45;;;7.72;;
55076;SDS011;40971;44.702;11.030;2022-09-03T05:06:10;11.23;;;6.85;;
55076;SDS011;40971;44.702;11.030;2022-09-03T05:08:36;12.25;;;8.38;;
55076;SDS011;40971;44.702;11.030;2022-09-03T05:11:02;13.73;;;7.70;;
55076;SDS011;40971;44.702;11.030;2022-09-03T05:13:29;11.65;;;7.60;;
55076;SDS011;40971;44.702;11.030;2022-09-03T05:16:03;16.50;;;7.97;;
55076;SDS011;40971;44.702;11.030;2022-09-03T05:18:33;13.52;;;8.45;;
55076;SDS011;40971;44.702;11.030;2022-09-03T05:21:00;11.18;;;7.10;;
55076;SDS011;40971;44.702;11.030;2022-09-03T05:23:28;11.82;;;8.10;;
55076;SDS011;40971;44.702;11.030;2022-09-03T05:25:58;13.15;;;8.32;;
55076;SDS011;40971;44.702;11.030;2022-09-03T05:28:26;13.50;;;7.88;;
55076;SDS011;40971;44.702;11.030;2022-09-03T05:30:57;19.13;;;8.93;;
55076;SDS011;40971;44.702;11.030;2022-09-03T05:33:24;13.77;;;8.20;;
55076;SDS011;40971;44.702;11.030;2022-09-03T05:35:50;12.30;;;7.82;;
55076;SDS011;40971;44.702;11.030;2022-09-03T05:38:17;17.48;;;8.80;;
55076;SDS011;40971;44.702;11.030;2022-09-03T05:40:43;32.13;;;8.27;;
55076;SDS011;40971;44.702;11.030;2022-09-03T05:43:08;15.25;;;8.10;;
55076;SDS011;40971;44.702;11.030;2022-09-03T05:45:34;13.55;;;7.78;;
55076;SDS011;40971;44.702;11.030;2022-09-03T05:48:00;12.48;;;7.55;;
55076;SDS011;40971;44.702;11.030;2022-09-03T05:50:26;11.07;;;7.63;;
55076;SDS011;40971;44.702;11.030;2022-09-03T05:52:52;13.35;;;8.05;;
55076;SDS011;40971;44.702;11.030;2022-09-03T05:55:18;18.15;;;8.20;;
55076;SDS011;40971;44.702;11.030;2022-09-03T05:57:50;13.50;;;8.20;;
55076;SDS011;40971;44.702;11.030;2022-09-03T06:00:17;11.75;;;7.75;;
55076;SDS011;40971;44.702;11.030;2022-09-03T06:02:48;15.27;;;8.05;;
55076;SDS011;40971;44.702;11.030;2022-09-03T06:05:17;15.98;;;7.85;;
55076;SDS011;40971;44.702;11.030;2022-09-03T06:07:43;14.18;;;8.18;;
55076;SDS011;40971;44.702;11.030;2022-09-03T06:10:12;13.38;;;7.70;;
55076;SDS011;40971;44.702;11.030;2022-09-03T06:12:40;13.07;;;7.65;;
55076;SDS011;40971;44.702;11.030;2022-09-03T06:15:06;12.68;;;7.18;;
55076;SDS011;40971;44.702;11.030;2022-09-03T06:17:32;13.05;;;7.38;;
55076;SDS011;40971;44.702;11.030;2022-09-03T06:19:58;24.20;;;7.15;;
55076;SDS011;40971;44.702;11.030;2022-09-03T06:22:23;13.85;;;6.32;;
55076;SDS011;40971;44.702;11.030;2022-09-03T06:24:52;12.98;;;6.90;;
55076;SDS011;40971;44.702;11.030;2022-09-03T06:27:18;15.88;;;6.97;;
55076;SDS011;40971;44.702;11.030;2022-09-03T06:29:45;15.77;;;6.80;;
55076;SDS011;40971;44.702;11.030;2022-09-03T06:32:10;11.38;;;6.68;;
55076;SDS011;40971;44.702;11.030;2022-09-03T06:34:36;14.50;;;6.80;;
55076;SDS011;40971;44.702;11.030;2022-09-03T06:37:01;13.02;;;6.50;;
55076;SDS011;40971;44.702;11.030;2022-09-03T06:39:27;11.38;;;5.85;;
55076;SDS011;40971;44.702;11.030;2022-09-03T06:41:52;9.85;;;5.75;;
55076;SDS011;40971;44.702;11.030;2022-09-03T06:44:19;14.57;;;5.60;;
55076;SDS011;40971;44.702;11.030;2022-09-03T06:46:44;9.88;;;5.50;;
55076;SDS011;40971;44.702;11.030;2022-09-03T06:49:11;11.38;;;6.00;;
55076;SDS011;40971;44.702;11.030;2022-09-03T06:51:37;11.07;;;5.85;;
55076;SDS011;40971;44.702;11.030;2022-09-03T06:54:07;12.90;;;5.85;;
55076;SDS011;40971;44.702;11.030;2022-09-03T06:56:35;8.80;;;5.25;;
55076;SDS011;40971;44.702;11.030;2022-09-03T06:59:03;10.20;;;5.32;;
55076;SDS011;40971;44.702;11.030;2022-09-03T07:01:31;10.30;;;5.22;;
55076;SDS011;40971;44.702;11.030;2022-09-03T07:03:58;10.35;;;5.10;;
55076;SDS011;40971;44.702;11.030;2022-09-03T07:06:25;11.25;;;5.90;;
55076;SDS011;40971;44.702;11.030;2022-09-03T07:08:53;10.77;;;5.57;;
55076;SDS011;40971;44.702;11.030;2022-09-03T07:11:23;9.68;;;5.32;;
55076;SDS011;40971;44.702;11.030;2022-09-03T07:13:51;10.65;;;5.28;;
55076;SDS011;40971;44.702;11.030;2022-09-03T07:18:45;11.35;;;5.38;;
55076;SDS011;40971;44.702;11.030;2022-09-03T07:21:12;11.70;;;5.20;;
55076;SDS011;40971;44.702;11.030;2022-09-03T07:23:39;11.23;;;5.35;;
55076;SDS011;40971;44.702;11.030;2022-09-03T07:26:08;12.73;;;4.72;;
55076;SDS011;40971;44.702;11.030;2022-09-03T07:28:39;9.15;;;5.10;;
55076;SDS011;40971;44.702;11.030;2022-09-03T07:31:08;11.65;;;4.82;;
55076;SDS011;40971;44.702;11.030;2022-09-03T07:33:36;11.52;;;5.45;;
55076;SDS011;40971;44.702;11.030;2022-09-03T07:36:03;16.80;;;5.13;;
55076;SDS011;40971;44.702;11.030;2022-09-03T07:38:31;12.43;;;5.10;;
55076;SDS011;40971;44.702;11.030;2022-09-03T07:40:57;11.77;;;4.72;;
55076;SDS011;40971;44.702;11.030;2022-09-03T07:43:27;13.40;;;4.60;;
55076;SDS011;40971;44.702;11.030;2022-09-03T07:45:54;11.68;;;4.10;;
55076;SDS011;40971;44.702;11.030;2022-09-03T07:48:21;8.88;;;4.03;;
55076;SDS011;40971;44.702;11.030;2022-09-03T07:50:47;16.55;;;4.15;;
55076;SDS011;40971;44.702;11.030;2022-09-03T07:53:14;6.75;;;3.25;;
55076;SDS011;40971;44.702;11.030;2022-09-03T07:55:41;8.60;;;3.70;;
55076;SDS011;40971;44.702;11.030;2022-09-03T07:58:07;11.43;;;4.18;;
55076;SDS011;40971;44.702;11.030;2022-09-03T08:00:32;7.70;;;3.80;;
55076;SDS011;40971;44.702;11.030;2022-09-03T08:02:58;10.10;;;3.70;;
55076;SDS011;40971;44.702;11.030;2022-09-03T08:05:31;7.65;;;3.45;;
55076;SDS011;40971;44.702;11.030;2022-09-03T08:07:58;7.65;;;3.63;;
55076;SDS011;40971;44.702;11.030;2022-09-03T08:10:25;6.90;;;3.75;;
55076;SDS011;40971;44.702;11.030;2022-09-03T08:12:52;7.18;;;3.15;;
55076;SDS011;40971;44.702;11.030;2022-09-03T08:15:18;10.32;;;3.65;;
55076;SDS011;40971;44.702;11.030;2022-09-03T08:17:43;7.97;;;3.22;;
55076;SDS011;40971;44.702;11.030;2022-09-03T08:20:09;10.57;;;4.05;;
55076;SDS011;40971;44.702;11.030;2022-09-03T08:22:35;9.15;;;3.50;;
55076;SDS011;40971;44.702;11.030;2022-09-03T08:25:01;28.63;;;6.10;;
55076;SDS011;40971;44.702;11.030;2022-09-03T08:27:27;8.82;;;3.35;;
55076;SDS011;40971;44.702;11.030;2022-09-03T08:29:53;6.45;;;2.90;;
55076;SDS011;40971;44.702;11.030;2022-09-03T08:32:19;7.20;;;3.67;;
55076;SDS011;40971;44.702;11.030;2022-09-03T08:34:44;7.68;;;3.88;;
55076;SDS011;40971;44.702;11.030;2022-09-03T08:37:10;9.90;;;3.60;;
55076;SDS011;40971;44.702;11.030;2022-09-03T08:39:37;9.68;;;3.72;;
55076;SDS011;40971;44.702;11.030;2022-09-03T08:42:12;7.82;;;3.70;;
55076;SDS011;40971;44.702;11.030;2022-09-03T08:44:59;10.88;;;3.90;;
55076;SDS011;40971;44.702;11.030;2022-09-03T08:47:43;12.93;;;3.65;;
55076;SDS011;40971;44.702;11.030;2022-09-03T08:50:28;16.58;;;3.25;;
55076;SDS011;40971;44.702;11.030;2022-09-03T08:55:35;7.75;;;3.38;;
55076;SDS011;40971;44.702;11.030;2022-09-03T08:58:10;9.13;;;3.03;;
55076;SDS011;40971;44.702;11.030;2022-09-03T09:00:45;10.23;;;2.92;;
55076;SDS011;40971;44.702;11.030;2022-09-03T09:03:21;7.68;;;2.90;;
55076;SDS011;40971;44.702;11.030;2022-09-03T09:05:59;13.63;;;3.17;;
55076;SDS011;40971;44.702;11.030;2022-09-03T09:14:39;17.13;;;3.35;;
55076;SDS011;40971;44.702;11.030;2022-09-03T09:19:40;9.30;;;3.20;;
55076;SDS011;40971;44.702;11.030;2022-09-03T09:22:09;8.20;;;2.53;;
55076;SDS011;40971;44.702;11.030;2022-09-03T09:24:45;20.05;;;2.92;;
55076;SDS011;40971;44.702;11.030;2022-09-03T09:27:13;17.73;;;2.95;;
55076;SDS011;40971;44.702;11.030;2022-09-03T09:29:45;7.55;;;2.95;;
55076;SDS011;40971;44.702;11.030;2022-09-03T09:32:13;7.00;;;2.70;;
55076;SDS011;40971;44.702;11.030;2022-09-03T09:34:41;10.27;;;2.60;;
55076;SDS011;40971;44.702;11.030;2022-09-03T09:37:09;7.35;;;2.10;;
55076;SDS011;40971;44.702;11.030;2022-09-03T09:39:39;9.88;;;2.15;;
55076;SDS011;40971;44.702;11.030;2022-09-03T09:42:06;5.68;;;1.83;;
55076;SDS011;40971;44.702;11.030;2022-09-03T09:44:34;8.15;;;2.00;;
55076;SDS011;40971;44.702;11.030;2022-09-03T09:47:04;7.72;;;2.10;;
55076;SDS011;40971;44.702;11.030;2022-09-03T09:49:56;21.52;;;2.40;;
55076;SDS011;40971;44.702;11.030;2022-09-03T09:52:25;21.33;;;2.50;;
55076;SDS011;40971;44.702;11.030;2022-09-03T09:55:04;12.10;;;1.90;;
55076;SDS011;40971;44.702;11.030;2022-09-03T09:57:41;6.28;;;2.00;;
55076;SDS011;40971;44.702;11.030;2022-09-03T10:00:08;8.85;;;1.90;;
55076;SDS011;40971;44.702;11.030;2022-09-03T10:02:38;5.55;;;1.80;;
55076;SDS011;40971;44.702;11.030;2022-09-03T10:05:20;5.63;;;1.85;;
55076;SDS011;40971;44.702;11.030;2022-09-03T10:10:32;6.88;;;2.22;;
55076;SDS011;40971;44.702;11.030;2022-09-03T10:13:04;7.05;;;1.67;;
55076;SDS011;40971;44.702;11.030;2022-09-03T10:15:39;8.20;;;2.10;;
55076;SDS011;40971;44.702;11.030;2022-09-03T10:18:11;11.88;;;2.08;;
55076;SDS011;40971;44.702;11.030;2022-09-03T10:23:29;5.93;;;1.73;;
55076;SDS011;40971;44.702;11.030;2022-09-03T10:26:12;5.30;;;2.00;;
55076;SDS011;40971;44.702;11.030;2022-09-03T10:28:41;4.85;;;1.73;;
55076;SDS011;40971;44.702;11.030;2022-09-03T10:31:11;7.43;;;1.83;;
55076;SDS011;40971;44.702;11.030;2022-09-03T10:37:07;6.07;;;1.70;;
55076;SDS011;40971;44.702;11.030;2022-09-03T11:04:25;9.55;;;3.45;;
55076;SDS011;40971;44.702;11.030;2022-09-03T11:07:05;16.20;;;5.80;;
55076;SDS011;40971;44.702;11.030;2022-09-03T11:09:38;11.40;;;3.60;;
55076;SDS011;40971;44.702;11.030;2022-09-03T11:12:18;13.05;;;3.75;;
55076;SDS011;40971;44.702;11.030;2022-09-03T11:17:37;7.03;;;2.13;;
55076;SDS011;40971;44.702;11.030;2022-09-03T11:22:41;6.82;;;2.10;;
55076;SDS011;40971;44.702;11.030;2022-09-03T11:25:08;8.20;;;2.38;;
55076;SDS011;40971;44.702;11.030;2022-09-03T11:33:11;7.45;;;2.00;;
55076;SDS011;40971;44.702;11.030;2022-09-03T11:35:38;7.15;;;2.83;;
55076;SDS011;40971;44.702;11.030;2022-09-03T11:41:00;11.32;;;2.92;;
55076;SDS011;40971;44.702;11.030;2022-09-03T11:43:38;6.80;;;2.35;;
55076;SDS011;40971;44.702;11.030;2022-09-03T11:46:12;8.55;;;2.17;;
55076;SDS011;40971;44.702;11.030;2022-09-03T11:48:52;5.75;;;2.20;;
55076;SDS011;40971;44.702;11.030;2022-09-03T11:51:33;11.48;;;2.40;;
55076;SDS011;40971;44.702;11.030;2022-09-03T11:56:36;5.78;;;2.05;;
55076;SDS011;40971;44.702;11.030;2022-09-03T12:01:31;10.20;;;2.10;;
55076;SDS011;40971;44.702;11.030;2022-09-03T12:20:11;7.18;;;2.05;;
55076;SDS011;40971;44.702;11.030;2022-09-03T12:22:38;7.88;;;2.30;;
55076;SDS011;40971;44.702;11.030;2022-09-03T12:25:22;7.03;;;2.20;;
55076;SDS011;40971;44.702;11.030;2022-09-03T12:27:47;7.03;;;1.80;;
55076;SDS011;40971;44.702;11.030;2022-09-03T12:30:17;5.55;;;2.03;;
55076;SDS011;40971;44.702;11.030;2022-09-03T12:32:46;8.50;;;2.42;;
55076;SDS011;40971;44.702;11.030;2022-09-03T12:35:13;7.22;;;1.95;;
55076;SDS011;40971;44.702;11.030;2022-09-03T12:37:43;7.97;;;1.75;;
55076;SDS011;40971;44.702;11.030;2022-09-03T12:40:20;7.00;;;2.17;;
55076;SDS011;40971;44.702;11.030;2022-09-03T12:42:47;8.15;;;3.03;;
55076;SDS011;40971;44.702;11.030;2022-09-03T12:45:13;9.52;;;2.47;;
55076;SDS011;40971;44.702;11.030;2022-09-03T12:47:43;6.25;;;1.70;;
55076;SDS011;40971;44.702;11.030;2022-09-03T12:50:16;7.45;;;1.80;;
55076;SDS011;40971;44.702;11.030;2022-09-03T12:55:25;6.28;;;1.88;;
55076;SDS011;40971;44.702;11.030;2022-09-03T13:00:23;6.05;;;2.00;;
55076;SDS011;40971;44.702;11.030;2022-09-03T13:05:19;9.32;;;3.15;;
55076;SDS011;40971;44.702;11.030;2022-09-03T13:07:54;11.68;;;2.05;;
55076;SDS011;40971;44.702;11.030;2022-09-03T13:10:26;5.38;;;2.00;;
55076;SDS011;40971;44.702;11.030;2022-09-03T13:12:58;8.82;;;2.05;;
55076;SDS011;40971;44.702;11.030;2022-09-03T13:15:27;6.82;;;1.77;;
55076;SDS011;40971;44.702;11.030;2022-09-03T13:18:12;5.05;;;2.00;;
55076;SDS011;40971;44.702;11.030;2022-09-03T13:21:00;8.60;;;1.90;;
55076;SDS011;40971;44.702;11.030;2022-09-03T13:26:05;5.40;;;1.77;;
55076;SDS011;40971;44.702;11.030;2022-09-03T13:31:23;8.60;;;1.80;;
55076;SDS011;40971;44.702;11.030;2022-09-03T13:37:44;5.15;;;1.90;;
55076;SDS011;40971;44.702;11.030;2022-09-03T13:39:46;6.00;;;1.90;;
55076;SDS011;40971;44.702;11.030;2022-09-03T13:42:15;5.78;;;1.83;;
55076;SDS011;40971;44.702;11.030;2022-09-03T13:47:26;8.30;;;1.90;;
55076;SDS011;40971;44.702;11.030;2022-09-03T13:50:30;7.97;;;1.95;;
55076;SDS011;40971;44.702;11.030;2022-09-03T13:53:48;6.30;;;2.10;;
55076;SDS011;40971;44.702;11.030;2022-09-03T13:56:22;5.63;;;2.03;;
55076;SDS011;40971;44.702;11.030;2022-09-03T14:04:28;5.35;;;2.03;;
55076;SDS011;40971;44.702;11.030;2022-09-03T14:10:21;14.00;;;2.30;;
55076;SDS011;40971;44.702;11.030;2022-09-03T14:13:21;4.60;;;1.85;;
55076;SDS011;40971;44.702;11.030;2022-09-03T14:18:55;5.30;;;1.80;;
55076;SDS011;40971;44.702;11.030;2022-09-03T14:21:27;7.90;;;1.70;;
55076;SDS011;40971;44.702;11.030;2022-09-03T14:26:26;10.15;;;2.33;;
55076;SDS011;40971;44.702;11.030;2022-09-03T14:29:14;3.95;;;1.60;;
55076;SDS011;40971;44.702;11.030;2022-09-03T14:40:42;4.38;;;1.70;;
55076;SDS011;40971;44.702;11.030;2022-09-03T14:43:25;4.40;;;1.70;;
55076;SDS011;40971;44.702;11.030;2022-09-03T14:45:59;5.60;;;1.60;;
55076;SDS011;40971;44.702;11.030;2022-09-03T15:07:52;10.52;;;2.17;;
55076;SDS011;40971;44.702;11.030;2022-09-03T15:10:25;8.27;;;1.95;;
55076;SDS011;40971;44.702;11.030;2022-09-03T15:15:35;7.43;;;1.95;;
55076;SDS011;40971;44.702;11.030;2022-09-03T15:34:49;5.82;;;1.88;;
55076;SDS011;40971;44.702;11.030;2022-09-03T15:37:47;7.22;;;2.20;;
55076;SDS011;40971;44.702;11.030;2022-09-03T15:40:23;4.80;;;1.90;;
55076;SDS011;40971;44.702;11.030;2022-09-03T15:45:52;18.52;;;2.45;;
55076;SDS011;40971;44.702;11.030;2022-09-03T15:53:55;8.63;;;2.30;;
55076;SDS011;40971;44.702;11.030;2022-09-03T15:56:30;5.63;;;1.98;;
55076;SDS011;40971;44.702;11.030;2022-09-03T16:02:33;9.18;;;2.00;;
55076;SDS011;40971;44.702;11.030;2022-09-03T16:05:11;7.22;;;2.05;;
55076;SDS011;40971;44.702;11.030;2022-09-03T16:10:14;13.88;;;2.42;;
55076;SDS011;40971;44.702;11.030;2022-09-03T16:13:00;5.95;;;2.28;;
55076;SDS011;40971;44.702;11.030;2022-09-03T16:15:35;4.97;;;1.77;;
55076;SDS011;40971;44.702;11.030;2022-09-03T16:21:03;6.72;;;2.00;;
55076;SDS011;40971;44.702;11.030;2022-09-03T16:23:42;7.28;;;2.30;;
55076;SDS011;40971;44.702;11.030;2022-09-03T16:29:02;17.17;;;3.08;;
55076;SDS011;40971;44.702;11.030;2022-09-03T16:36:51;9.50;;;2.35;;
55076;SDS011;40971;44.702;11.030;2022-09-03T17:01:46;10.02;;;2.67;;
55076;SDS011;40971;44.702;11.030;2022-09-03T17:20:24;6.55;;;2.30;;
55076;SDS011;40971;44.702;11.030;2022-09-03T17:25:38;9.40;;;2.60;;
55076;SDS011;40971;44.702;11.030;2022-09-03T17:28:10;6.78;;;2.42;;
55076;SDS011;40971;44.702;11.030;2022-09-03T17:31:10;11.52;;;2.47;;
55076;SDS011;40971;44.702;11.030;2022-09-03T17:36:27;10.95;;;2.70;;
55076;SDS011;40971;44.702;11.030;2022-09-03T17:41:56;9.73;;;2.80;;
55076;SDS011;40971;44.702;11.030;2022-09-03T17:49:50;11.60;;;2.67;;
55076;SDS011;40971;44.702;11.030;2022-09-03T17:52:24;12.07;;;2.92;;
55076;SDS011;40971;44.702;11.030;2022-09-03T17:55:12;18.50;;;2.65;;
55076;SDS011;40971;44.702;11.030;2022-09-03T17:57:44;8.68;;;2.83;;
55076;SDS011;40971;44.702;11.030;2022-09-03T18:00:22;6.93;;;2.83;;
55076;SDS011;40971;44.702;11.030;2022-09-03T18:05:31;6.65;;;2.50;;
55076;SDS011;40971;44.702;11.030;2022-09-03T18:08:17;10.93;;;2.50;;
55076;SDS011;40971;44.702;11.030;2022-09-03T18:13:57;9.55;;;3.00;;
55076;SDS011;40971;44.702;11.030;2022-09-03T18:16:51;12.18;;;3.00;;
55076;SDS011;40971;44.702;11.030;2022-09-03T18:21:57;11.82;;;3.13;;
55076;SDS011;40971;44.702;11.030;2022-09-03T18:24:55;9.38;;;3.17;;
55076;SDS011;40971;44.702;11.030;2022-09-03T18:28:03;7.72;;;3.20;;
55076;SDS011;40971;44.702;11.030;2022-09-03T18:30:52;6.50;;;2.63;;
55076;SDS011;40971;44.702;11.030;2022-09-03T18:33:36;10.25;;;3.22;;
55076;SDS011;40971;44.702;11.030;2022-09-03T18:36:20;7.93;;;3.05;;
55076;SDS011;40971;44.702;11.030;2022-09-03T18:39:13;9.93;;;2.97;;
55076;SDS011;40971;44.702;11.030;2022-09-03T18:42:11;10.32;;;3.53;;
55076;SDS011;40971;44.702;11.030;2022-09-03T18:48:23;11.93;;;3.38;;
55076;SDS011;40971;44.702;11.030;2022-09-03T19:00:53;7.32;;;3.20;;
55076;SDS011;40971;44.702;11.030;2022-09-03T19:07:10;13.40;;;3.35;;
55076;SDS011;40971;44.702;11.030;2022-09-03T19:15:51;13.13;;;3.22;;
55076;SDS011;40971;44.702;11.030;2022-09-03T19:21:35;6.57;;;2.80;;
55076;SDS011;40971;44.702;11.030;2022-09-03T19:24:28;9.85;;;3.13;;
55076;SDS011;40971;44.702;11.030;2022-09-03T19:30:25;10.75;;;3.17;;
55076;SDS011;40971;44.702;11.030;2022-09-03T19:44:50;7.22;;;3.30;;
55076;SDS011;40971;44.702;11.030;2022-09-03T19:50:28;9.40;;;3.40;;
55076;SDS011;40971;44.702;11.030;2022-09-03T19:53:17;11.50;;;4.10;;
55076;SDS011;40971;44.702;11.030;2022-09-03T19:56:26;10.45;;;3.88;;
55076;SDS011;40971;44.702;11.030;2022-09-03T19:59:15;6.85;;;3.22;;
55076;SDS011;40971;44.702;11.030;2022-09-03T20:02:02;9.45;;;3.50;;
55076;SDS011;40971;44.702;11.030;2022-09-03T20:04:53;9.73;;;3.67;;
55076;SDS011;40971;44.702;11.030;2022-09-03T20:07:41;8.77;;;4.15;;
55076;SDS011;40971;44.702;11.030;2022-09-03T20:10:24;10.35;;;4.53;;
55076;SDS011;40971;44.702;11.030;2022-09-03T20:12:58;10.57;;;3.80;;
55076;SDS011;40971;44.702;11.030;2022-09-03T21:07:25;14.35;;;5.93;;
55076;SDS011;40971;44.702;11.030;2022-09-03T21:18:38;10.70;;;5.20;;
55076;SDS011;40971;44.702;11.030;2022-09-03T21:24:23;8.48;;;5.05;;
55076;SDS011;40971;44.702;11.030;2022-09-03T21:26:58;12.95;;;5.78;;
55076;SDS011;40971;44.702;11.030;2022-09-03T21:29:39;17.70;;;6.55;;
55076;SDS011;40971;44.702;11.030;2022-09-03T21:32:22;16.08;;;7.32;;
55076;SDS011;40971;44.702;11.030;2022-09-03T21:35:00;15.15;;;7.82;;
55076;SDS011;40971;44.702;11.030;2022-09-03T21:37:34;15.65;;;6.57;;
55076;SDS011;40971;44.702;11.030;2022-09-03T21:40:01;17.27;;;6.47;;
55076;SDS011;40971;44.702;11.030;2022-09-03T21:42:38;10.35;;;5.63;;
55076;SDS011;40971;44.702;11.030;2022-09-03T21:45:11;9.73;;;6.25;;
55076;SDS011;40971;44.702;11.030;2022-09-03T21:48:28;17.95;;;6.43;;